sensor_id;sensor_type;location;lat;lon;timestamp;pressure;altitude;pressure_sealevel;temperature;humidity
74403;BME280;62837;51.082;13.744;2023-03-01T00:02:20;101815.35;;;-1.85;72.33
74403;BME280;62837;51.082;13.744;2023-03-01T00:04:51;101820.06;;;-1.82;71.94
74403;BME280;62837;51.082;13.744;2023-03-01T00:07:22;101824.98;;;-1.79;71.99
74403;BME280;62837;51.082;13.744;2023-03-01T00:09:53;101829.81;;;-1.75;71.95
74403;BME280;62837;51.082;13.744;2023-03-01T00:12:23;101829.13;;;-1.75;71.85
74403;BME280;62837;51.082;13.744;2023-03-01T00:14:54;101822.25;;;-1.84;72.08
74403;BME280;62837;51.082;13.744;2023-03-01T00:17:26;101823.29;;;-1.84;72.18
74403;BME280;62837;51.082;13.744;2023-03-01T00:19:58;101818.49;;;-1.84;71.91
74403;BME280;62837;51.082;13.744;2023-03-01T00:22:29;101813.11;;;-1.86;71.68
74403;BME280;62837;51.082;13.744;2023-03-01T00:24:59;101816.54;;;-1.90;72.21
74403;BME280;62837;51.082;13.744;2023-03-01T00:27:30;101822.38;;;-1.87;71.48
74403;BME280;62837;51.082;13.744;2023-03-01T00:30:01;101819.98;;;-1.86;71.81
74403;BME280;62837;51.082;13.744;2023-03-01T00:32:32;101824.60;;;-1.86;71.46
74403;BME280;62837;51.082;13.744;2023-03-01T00:35:03;101819.80;;;-1.88;71.61
74403;BME280;62837;51.082;13.744;2023-03-01T00:37:35;101819.14;;;-1.95;71.88
74403;BME280;62837;51.082;13.744;2023-03-01T00:40:08;101814.66;;;-2.00;71.90
74403;BME280;62837;51.082;13.744;2023-03-01T00:42:39;101810.23;;;-2.01;71.69
74403;BME280;62837;51.082;13.744;2023-03-01T00:45:11;101806.12;;;-2.01;71.87
74403;BME280;62837;51.082;13.744;2023-03-01T00:47:43;101809.04;;;-2.06;71.40
74403;BME280;62837;51.082;13.744;2023-03-01T00:50:14;101805.79;;;-2.13;72.11
74403;BME280;62837;51.082;13.744;2023-03-01T00:52:46;101809.07;;;-2.20;72.05
74403;BME280;62837;51.082;13.744;2023-03-01T00:55:17;101801.10;;;-2.23;72.20
74403;BME280;62837;51.082;13.744;2023-03-01T00:57:48;101796.56;;;-2.26;72.44
74403;BME280;62837;51.082;13.744;2023-03-01T01:00:23;101796.14;;;-2.31;71.99
74403;BME280;62837;51.082;13.744;2023-03-01T01:02:57;101802.71;;;-2.32;72.49
74403;BME280;62837;51.082;13.744;2023-03-01T01:05:28;101801.95;;;-2.32;72.53
74403;BME280;62837;51.082;13.744;2023-03-01T01:07:59;101801.63;;;-2.32;72.10
74403;BME280;62837;51.082;13.744;2023-03-01T01:10:29;101795.05;;;-2.33;72.49
74403;BME280;62837;51.082;13.744;2023-03-01T01:13:00;101796.17;;;-2.32;72.00
74403;BME280;62837;51.082;13.744;2023-03-01T01:15:34;101799.09;;;-2.34;72.29
74403;BME280;62837;51.082;13.744;2023-03-01T01:18:05;101805.10;;;-2.35;72.39
74403;BME280;62837;51.082;13.744;2023-03-01T01:20:37;101801.95;;;-2.36;72.19
74403;BME280;62837;51.082;13.744;2023-03-01T01:23:08;101803.50;;;-2.43;72.09
74403;BME280;62837;51.082;13.744;2023-03-01T01:25:39;101797.63;;;-2.51;72.57
74403;BME280;62837;51.082;13.744;2023-03-01T01:28:09;101790.67;;;-2.59;72.43
74403;BME280;62837;51.082;13.744;2023-03-01T01:30:40;101790.58;;;-2.62;73.01
74403;BME280;62837;51.082;13.744;2023-03-01T01:33:11;101786.48;;;-2.59;73.31
74403;BME280;62837;51.082;13.744;2023-03-01T01:35:44;101783.66;;;-2.57;72.71
74403;BME280;62837;51.082;13.744;2023-03-01T01:38:15;101778.71;;;-2.62;72.47
74403;BME280;62837;51.082;13.744;2023-03-01T01:40:46;101779.92;;;-2.69;72.54
74403;BME280;62837;51.082;13.744;2023-03-01T01:43:21;101778.31;;;-2.75;72.94
74403;BME280;62837;51.082;13.744;2023-03-01T01:45:54;101775.20;;;-2.82;72.51
74403;BME280;62837;51.082;13.744;2023-03-01T01:48:32;101774.56;;;-2.85;73.34
74403;BME280;62837;51.082;13.744;2023-03-01T01:51:12;101780.95;;;-2.80;72.89
74403;BME280;62837;51.082;13.744;2023-03-01T01:53:44;101783.25;;;-2.78;73.23
74403;BME280;62837;51.082;13.744;2023-03-01T01:56:17;101779.80;;;-2.74;73.14
74403;BME280;62837;51.082;13.744;2023-03-01T01:58:50;101774.50;;;-2.75;72.63
74403;BME280;62837;51.082;13.744;2023-03-01T02:01:21;101781.81;;;-2.80;72.81
74403;BME280;62837;51.082;13.744;2023-03-01T02:03:52;101778.45;;;-2.90;72.95
74403;BME280;62837;51.082;13.744;2023-03-01T02:06:27;101774.11;;;-2.98;73.54
74403;BME280;62837;51.082;13.744;2023-03-01T02:09:04;101771.55;;;-3.03;73.61
74403;BME280;62837;51.082;13.744;2023-03-01T02:11:37;101773.40;;;-3.06;73.33
74403;BME280;62837;51.082;13.744;2023-03-01T02:14:08;101772.83;;;-3.08;73.62
74403;BME280;62837;51.082;13.744;2023-03-01T02:16:39;101771.09;;;-3.06;73.55
74403;BME280;62837;51.082;13.744;2023-03-01T02:19:15;101761.91;;;-3.04;73.22
74403;BME280;62837;51.082;13.744;2023-03-01T02:21:54;101759.38;;;-2.99;73.08
74403;BME280;62837;51.082;13.744;2023-03-01T02:24:34;101759.02;;;-2.94;73.58
74403;BME280;62837;51.082;13.744;2023-03-01T02:27:08;101752.95;;;-2.88;72.86
74403;BME280;62837;51.082;13.744;2023-03-01T02:29:40;101752.83;;;-2.92;73.53
74403;BME280;62837;51.082;13.744;2023-03-01T02:32:13;101747.25;;;-2.96;73.48
74403;BME280;62837;51.082;13.744;2023-03-01T02:34:45;101747.04;;;-2.96;73.12
74403;BME280;62837;51.082;13.744;2023-03-01T02:37:17;101747.77;;;-3.02;73.07
74403;BME280;62837;51.082;13.744;2023-03-01T02:39:58;101747.54;;;-3.10;73.77
74403;BME280;62837;51.082;13.744;2023-03-01T02:42:33;101741.23;;;-3.17;73.87
74403;BME280;62837;51.082;13.744;2023-03-01T02:45:08;101740.33;;;-3.17;74.18
74403;BME280;62837;51.082;13.744;2023-03-01T02:47:39;101737.56;;;-3.12;73.77
74403;BME280;62837;51.082;13.744;2023-03-01T02:50:34;101738.39;;;-3.08;73.39
74403;BME280;62837;51.082;13.744;2023-03-01T02:53:19;101738.77;;;-3.06;73.28
74403;BME280;62837;51.082;13.744;2023-03-01T02:55:54;101736.08;;;-3.06;72.97
74403;BME280;62837;51.082;13.744;2023-03-01T02:58:26;101736.76;;;-3.08;73.20
74403;BME280;62837;51.082;13.744;2023-03-01T03:00:57;101740.29;;;-3.09;73.34
74403;BME280;62837;51.082;13.744;2023-03-01T03:03:30;101738.75;;;-3.12;73.34
74403;BME280;62837;51.082;13.744;2023-03-01T03:06:01;101740.75;;;-3.20;73.60
74403;BME280;62837;51.082;13.744;2023-03-01T03:08:32;101735.29;;;-3.29;73.78
74403;BME280;62837;51.082;13.744;2023-03-01T03:11:03;101734.61;;;-3.33;74.33
74403;BME280;62837;51.082;13.744;2023-03-01T03:13:34;101732.95;;;-3.37;74.33
74403;BME280;62837;51.082;13.744;2023-03-01T03:16:06;101730.64;;;-3.37;74.13
74403;BME280;62837;51.082;13.744;2023-03-01T03:18:37;101728.67;;;-3.35;73.98
74403;BME280;62837;51.082;13.744;2023-03-01T03:21:10;101729.96;;;-3.33;73.73
74403;BME280;62837;51.082;13.744;2023-03-01T03:23:41;101726.30;;;-3.34;73.63
74403;BME280;62837;51.082;13.744;2023-03-01T03:26:12;101727.96;;;-3.35;73.65
74403;BME280;62837;51.082;13.744;2023-03-01T03:28:44;101720.33;;;-3.40;73.68
74403;BME280;62837;51.082;13.744;2023-03-01T03:31:16;101726.13;;;-3.47;73.94
74403;BME280;62837;51.082;13.744;2023-03-01T03:33:46;101726.88;;;-3.53;74.00
74403;BME280;62837;51.082;13.744;2023-03-01T03:36:19;101720.52;;;-3.58;74.10
74403;BME280;62837;51.082;13.744;2023-03-01T03:38:50;101718.67;;;-3.62;74.04
74403;BME280;62837;51.082;13.744;2023-03-01T03:41:21;101718.59;;;-3.63;74.40
74403;BME280;62837;51.082;13.744;2023-03-01T03:43:52;101713.59;;;-3.61;74.31
74403;BME280;62837;51.082;13.744;2023-03-01T03:46:23;101708.85;;;-3.56;73.92
74403;BME280;62837;51.082;13.744;2023-03-01T03:48:53;101706.62;;;-3.51;73.51
74403;BME280;62837;51.082;13.744;2023-03-01T03:51:24;101704.17;;;-3.50;73.24
74403;BME280;62837;51.082;13.744;2023-03-01T03:53:55;101706.48;;;-3.51;73.14
74403;BME280;62837;51.082;13.744;2023-03-01T03:56:25;101708.10;;;-3.57;73.21
74403;BME280;62837;51.082;13.744;2023-03-01T03:58:57;101714.55;;;-3.61;73.66
74403;BME280;62837;51.082;13.744;2023-03-01T04:01:28;101713.20;;;-3.65;73.53
74403;BME280;62837;51.082;13.744;2023-03-01T04:03:59;101713.27;;;-3.67;73.33
74403;BME280;62837;51.082;13.744;2023-03-01T04:06:33;101714.73;;;-3.71;73.48
74403;BME280;62837;51.082;13.744;2023-03-01T04:09:04;101723.27;;;-3.73;73.33
74403;BME280;62837;51.082;13.744;2023-03-01T04:11:35;101730.22;;;-3.73;73.42
74403;BME280;62837;51.082;13.744;2023-03-01T04:14:08;101730.12;;;-3.69;73.33
74403;BME280;62837;51.082;13.744;2023-03-01T04:16:40;101729.23;;;-3.67;73.10
74403;BME280;62837;51.082;13.744;2023-03-01T04:19:11;101727.80;;;-3.67;72.89
74403;BME280;62837;51.082;13.744;2023-03-01T04:21:41;101727.08;;;-3.69;72.91
74403;BME280;62837;51.082;13.744;2023-03-01T04:24:12;101727.84;;;-3.78;73.05
74403;BME280;62837;51.082;13.744;2023-03-01T04:26:43;101723.52;;;-3.86;73.33
74403;BME280;62837;51.082;13.744;2023-03-01T04:29:13;101722.55;;;-3.91;73.77
74403;BME280;62837;51.082;13.744;2023-03-01T04:31:44;101719.42;;;-3.97;73.40
74403;BME280;62837;51.082;13.744;2023-03-01T04:34:15;101724.78;;;-3.98;73.55
74403;BME280;62837;51.082;13.744;2023-03-01T04:36:46;101721.96;;;-4.01;73.48
74403;BME280;62837;51.082;13.744;2023-03-01T04:39:17;101716.67;;;-4.06;73.46
74403;BME280;62837;51.082;13.744;2023-03-01T04:41:47;101714.59;;;-4.01;73.44
74403;BME280;62837;51.082;13.744;2023-03-01T04:44:18;101711.89;;;-3.96;73.39
74403;BME280;62837;51.082;13.744;2023-03-01T04:46:51;101712.85;;;-3.95;73.15
74403;BME280;62837;51.082;13.744;2023-03-01T04:49:21;101712.04;;;-3.96;72.82
74403;BME280;62837;51.082;13.744;2023-03-01T04:51:52;101720.15;;;-3.94;72.99
74403;BME280;62837;51.082;13.744;2023-03-01T04:54:23;101726.30;;;-3.93;73.03
74403;BME280;62837;51.082;13.744;2023-03-01T04:56:54;101724.05;;;-3.92;73.41
74403;BME280;62837;51.082;13.744;2023-03-01T04:59:24;101726.76;;;-3.90;73.11
74403;BME280;62837;51.082;13.744;2023-03-01T05:01:56;101727.10;;;-3.88;73.04
74403;BME280;62837;51.082;13.744;2023-03-01T05:04:27;101726.68;;;-3.92;72.84
74403;BME280;62837;51.082;13.744;2023-03-01T05:06:58;101722.79;;;-3.96;73.01
74403;BME280;62837;51.082;13.744;2023-03-01T05:09:29;101720.65;;;-4.00;72.83
74403;BME280;62837;51.082;13.744;2023-03-01T05:11:59;101724.65;;;-4.01;72.89
74403;BME280;62837;51.082;13.744;2023-03-01T05:14:30;101721.98;;;-4.01;72.86
74403;BME280;62837;51.082;13.744;2023-03-01T05:17:01;101720.45;;;-4.08;73.05
74403;BME280;62837;51.082;13.744;2023-03-01T05:19:33;101719.59;;;-4.15;72.87
74403;BME280;62837;51.082;13.744;2023-03-01T05:22:04;101722.73;;;-4.20;73.04
74403;BME280;62837;51.082;13.744;2023-03-01T05:24:36;101718.95;;;-4.26;73.44
74403;BME280;62837;51.082;13.744;2023-03-01T05:27:07;101717.27;;;-4.31;73.77
74403;BME280;62837;51.082;13.744;2023-03-01T05:29:38;101714.58;;;-4.33;73.88
74403;BME280;62837;51.082;13.744;2023-03-01T05:32:09;101710.42;;;-4.35;73.92
74403;BME280;62837;51.082;13.744;2023-03-01T05:34:45;101710.88;;;-4.34;74.18
74403;BME280;62837;51.082;13.744;2023-03-01T05:37:16;101708.78;;;-4.32;74.05
74403;BME280;62837;51.082;13.744;2023-03-01T05:39:47;101704.69;;;-4.33;73.90
74403;BME280;62837;51.082;13.744;2023-03-01T05:42:19;101701.75;;;-4.34;73.97
74403;BME280;62837;51.082;13.744;2023-03-01T05:44:50;101702.17;;;-4.35;73.91
74403;BME280;62837;51.082;13.744;2023-03-01T05:47:21;101702.39;;;-4.35;73.96
74403;BME280;62837;51.082;13.744;2023-03-01T05:49:51;101698.97;;;-4.38;73.94
74403;BME280;62837;51.082;13.744;2023-03-01T05:52:22;101708.84;;;-4.38;73.86
74403;BME280;62837;51.082;13.744;2023-03-01T05:54:53;101708.59;;;-4.41;73.97
74403;BME280;62837;51.082;13.744;2023-03-01T05:57:24;101704.54;;;-4.42;74.31
74403;BME280;62837;51.082;13.744;2023-03-01T05:59:55;101706.02;;;-4.34;74.54
74403;BME280;62837;51.082;13.744;2023-03-01T06:02:26;101710.88;;;-4.30;73.99
74403;BME280;62837;51.082;13.744;2023-03-01T06:04:58;101712.72;;;-4.28;74.04
74403;BME280;62837;51.082;13.744;2023-03-01T06:07:29;101716.24;;;-4.26;73.96
74403;BME280;62837;51.082;13.744;2023-03-01T06:10:00;101717.14;;;-4.22;73.77
74403;BME280;62837;51.082;13.744;2023-03-01T06:12:33;101718.29;;;-4.23;73.60
74403;BME280;62837;51.082;13.744;2023-03-01T06:15:06;101715.27;;;-4.29;73.31
74403;BME280;62837;51.082;13.744;2023-03-01T06:17:40;101720.13;;;-4.31;74.16
74403;BME280;62837;51.082;13.744;2023-03-01T06:20:14;101721.00;;;-4.27;73.98
74403;BME280;62837;51.082;13.744;2023-03-01T06:22:47;101716.41;;;-4.25;74.14
74403;BME280;62837;51.082;13.744;2023-03-01T06:25:20;101719.09;;;-4.23;74.42
74403;BME280;62837;51.082;13.744;2023-03-01T06:27:52;101717.19;;;-4.20;74.79
74403;BME280;62837;51.082;13.744;2023-03-01T06:30:24;101722.75;;;-4.06;76.06
74403;BME280;62837;51.082;13.744;2023-03-01T06:32:56;101724.61;;;-4.00;74.21
74403;BME280;62837;51.082;13.744;2023-03-01T06:35:31;101724.42;;;-3.95;74.52
74403;BME280;62837;51.082;13.744;2023-03-01T06:38:03;101726.96;;;-3.86;73.89
74403;BME280;62837;51.082;13.744;2023-03-01T06:40:34;101730.66;;;-3.81;74.17
74403;BME280;62837;51.082;13.744;2023-03-01T06:43:05;101728.41;;;-2.85;88.85
74403;BME280;62837;51.082;13.744;2023-03-01T06:45:37;101722.87;;;-1.93;82.96
74403;BME280;62837;51.082;13.744;2023-03-01T06:48:08;101725.16;;;-1.95;75.65
74403;BME280;62837;51.082;13.744;2023-03-01T06:50:39;101730.24;;;-2.08;72.93
74403;BME280;62837;51.082;13.744;2023-03-01T06:53:10;101728.82;;;-2.12;72.56
74403;BME280;62837;51.082;13.744;2023-03-01T06:55:41;101725.50;;;-2.05;71.53
74403;BME280;62837;51.082;13.744;2023-03-01T06:58:11;101724.11;;;-1.93;71.03
74403;BME280;62837;51.082;13.744;2023-03-01T07:00:42;101722.84;;;-1.74;70.83
74403;BME280;62837;51.082;13.744;2023-03-01T07:03:13;101720.79;;;-1.57;70.40
74403;BME280;62837;51.082;13.744;2023-03-01T07:05:44;101716.73;;;-1.35;70.02
74403;BME280;62837;51.082;13.744;2023-03-01T07:08:15;101715.89;;;-1.12;69.50
74403;BME280;62837;51.082;13.744;2023-03-01T07:10:46;101716.00;;;-0.92;69.26
74403;BME280;62837;51.082;13.744;2023-03-01T07:13:18;101714.46;;;-0.73;68.74
74403;BME280;62837;51.082;13.744;2023-03-01T07:15:48;101711.55;;;-0.48;69.48
74403;BME280;62837;51.082;13.744;2023-03-01T07:18:19;101712.33;;;-0.15;68.56
74403;BME280;62837;51.082;13.744;2023-03-01T07:20:50;101707.92;;;0.08;67.63
74403;BME280;62837;51.082;13.744;2023-03-01T07:23:21;101702.90;;;0.20;66.50
74403;BME280;62837;51.082;13.744;2023-03-01T07:25:56;101698.47;;;0.27;66.04
74403;BME280;62837;51.082;13.744;2023-03-01T07:28:26;101693.16;;;0.43;66.36
74403;BME280;62837;51.082;13.744;2023-03-01T07:31:02;101687.54;;;0.67;65.89
74403;BME280;62837;51.082;13.744;2023-03-01T07:33:32;101682.75;;;0.87;64.77
74403;BME280;62837;51.082;13.744;2023-03-01T07:36:04;101684.68;;;1.01;65.54
74403;BME280;62837;51.082;13.744;2023-03-01T07:38:35;101685.00;;;1.26;65.35
74403;BME280;62837;51.082;13.744;2023-03-01T07:41:06;101684.42;;;1.46;64.19
74403;BME280;62837;51.082;13.744;2023-03-01T07:43:37;101679.79;;;1.60;64.40
74403;BME280;62837;51.082;13.744;2023-03-01T07:46:08;101677.17;;;1.83;63.74
74403;BME280;62837;51.082;13.744;2023-03-01T07:48:39;101681.11;;;1.99;62.65
74403;BME280;62837;51.082;13.744;2023-03-01T07:51:11;101688.09;;;2.13;62.72
74403;BME280;62837;51.082;13.744;2023-03-01T07:53:41;101684.82;;;2.32;62.64
74403;BME280;62837;51.082;13.744;2023-03-01T07:56:13;101680.34;;;2.55;62.27
74403;BME280;62837;51.082;13.744;2023-03-01T07:58:47;101677.43;;;2.82;61.65
74403;BME280;62837;51.082;13.744;2023-03-01T08:01:21;101674.56;;;3.09;61.12
74403;BME280;62837;51.082;13.744;2023-03-01T08:03:52;101665.00;;;3.29;60.17
74403;BME280;62837;51.082;13.744;2023-03-01T08:06:22;101663.34;;;3.47;60.28
74403;BME280;62837;51.082;13.744;2023-03-01T08:08:53;101655.81;;;3.62;60.19
74403;BME280;62837;51.082;13.744;2023-03-01T08:11:25;101650.77;;;3.81;59.83
74403;BME280;62837;51.082;13.744;2023-03-01T08:13:57;101650.02;;;3.99;59.14
74403;BME280;62837;51.082;13.744;2023-03-01T08:16:28;101651.14;;;4.17;59.04
74403;BME280;62837;51.082;13.744;2023-03-01T08:19:05;101649.65;;;4.21;56.90
74403;BME280;62837;51.082;13.744;2023-03-01T08:21:36;101648.20;;;4.05;56.42
74403;BME280;62837;51.082;13.744;2023-03-01T08:24:08;101643.35;;;3.90;55.92
74403;BME280;62837;51.082;13.744;2023-03-01T08:26:40;101639.59;;;3.70;55.71
74403;BME280;62837;51.082;13.744;2023-03-01T08:29:11;101638.64;;;3.70;57.46
74403;BME280;62837;51.082;13.744;2023-03-01T08:31:42;101637.19;;;3.90;57.38
74403;BME280;62837;51.082;13.744;2023-03-01T08:34:14;101643.36;;;4.02;57.38
74403;BME280;62837;51.082;13.744;2023-03-01T08:36:46;101635.48;;;4.14;57.27
74403;BME280;62837;51.082;13.744;2023-03-01T08:39:21;101630.20;;;4.20;56.94
74403;BME280;62837;51.082;13.744;2023-03-01T08:41:52;101629.70;;;4.28;57.30
74403;BME280;62837;51.082;13.744;2023-03-01T08:44:22;101629.67;;;4.30;58.11
74403;BME280;62837;51.082;13.744;2023-03-01T08:46:53;101632.77;;;4.48;59.01
74403;BME280;62837;51.082;13.744;2023-03-01T08:49:25;101624.37;;;4.68;56.98
74403;BME280;62837;51.082;13.744;2023-03-01T08:51:55;101627.46;;;4.88;59.26
74403;BME280;62837;51.082;13.744;2023-03-01T08:54:26;101630.27;;;5.07;57.22
74403;BME280;62837;51.082;13.744;2023-03-01T08:56:57;101633.02;;;5.16;56.32
74403;BME280;62837;51.082;13.744;2023-03-01T08:59:29;101629.11;;;5.22;55.97
74403;BME280;62837;51.082;13.744;2023-03-01T09:02:05;101626.30;;;5.27;54.51
74403;BME280;62837;51.082;13.744;2023-03-01T09:04:36;101624.61;;;5.21;54.58
74403;BME280;62837;51.082;13.744;2023-03-01T09:07:07;101620.30;;;5.25;54.67
74403;BME280;62837;51.082;13.744;2023-03-01T09:09:38;101614.42;;;5.35;54.35
74403;BME280;62837;51.082;13.744;2023-03-01T09:12:09;101616.25;;;5.38;53.85
74403;BME280;62837;51.082;13.744;2023-03-01T09:14:40;101607.91;;;5.39;54.18
74403;BME280;62837;51.082;13.744;2023-03-01T09:17:11;101608.48;;;5.41;53.87
74403;BME280;62837;51.082;13.744;2023-03-01T09:19:42;101601.77;;;5.47;54.26
74403;BME280;62837;51.082;13.744;2023-03-01T09:22:12;101590.44;;;5.60;54.19
74403;BME280;62837;51.082;13.744;2023-03-01T09:24:43;101582.80;;;5.76;53.96
74403;BME280;62837;51.082;13.744;2023-03-01T09:27:14;101583.65;;;5.88;53.64
74403;BME280;62837;51.082;13.744;2023-03-01T09:29:48;101579.20;;;6.03;54.10
74403;BME280;62837;51.082;13.744;2023-03-01T09:32:18;101579.21;;;6.21;53.53
74403;BME280;62837;51.082;13.744;2023-03-01T09:34:49;101574.30;;;6.29;52.43
74403;BME280;62837;51.082;13.744;2023-03-01T09:37:35;101570.20;;;6.15;51.38
74403;BME280;62837;51.082;13.744;2023-03-01T09:40:09;101574.77;;;6.15;52.53
74403;BME280;62837;51.082;13.744;2023-03-01T09:42:52;101576.03;;;6.29;52.28
74403;BME280;62837;51.082;13.744;2023-03-01T09:45:33;101576.33;;;6.46;52.11
74403;BME280;62837;51.082;13.744;2023-03-01T09:48:05;101575.64;;;6.53;51.96
74403;BME280;62837;51.082;13.744;2023-03-01T09:50:42;101575.39;;;6.62;51.48
74403;BME280;62837;51.082;13.744;2023-03-01T09:53:17;101574.73;;;6.55;50.68
74403;BME280;62837;51.082;13.744;2023-03-01T09:55:54;101567.58;;;6.46;51.60
74403;BME280;62837;51.082;13.744;2023-03-01T09:58:37;101569.34;;;6.55;51.71
74403;BME280;62837;51.082;13.744;2023-03-01T10:01:26;101569.54;;;6.62;51.36
74403;BME280;62837;51.082;13.744;2023-03-01T10:04:09;101563.79;;;6.62;51.65
74403;BME280;62837;51.082;13.744;2023-03-01T10:06:45;101559.52;;;6.69;51.72
74403;BME280;62837;51.082;13.744;2023-03-01T10:09:22;101563.60;;;6.80;51.83
74403;BME280;62837;51.082;13.744;2023-03-01T10:11:55;101558.91;;;6.94;51.37
74403;BME280;62837;51.082;13.744;2023-03-01T10:14:32;101557.69;;;7.09;50.84
74403;BME280;62837;51.082;13.744;2023-03-01T10:17:08;101557.58;;;7.23;50.53
74403;BME280;62837;51.082;13.744;2023-03-01T10:19:44;101561.21;;;7.37;49.98
74403;BME280;62837;51.082;13.744;2023-03-01T10:22:18;101558.19;;;7.47;49.74
74403;BME280;62837;51.082;13.744;2023-03-01T10:24:51;101565.34;;;7.52;49.71
74403;BME280;62837;51.082;13.744;2023-03-01T10:27:24;101560.55;;;7.58;49.49
74403;BME280;62837;51.082;13.744;2023-03-01T10:30:04;101558.40;;;7.65;48.92
74403;BME280;62837;51.082;13.744;2023-03-01T10:32:36;101552.30;;;7.73;48.61
74403;BME280;62837;51.082;13.744;2023-03-01T10:35:20;101546.59;;;7.80;48.52
74403;BME280;62837;51.082;13.744;2023-03-01T10:38:04;101546.09;;;7.79;47.52
74403;BME280;62837;51.082;13.744;2023-03-01T10:40:49;101539.48;;;7.70;47.41
74403;BME280;62837;51.082;13.744;2023-03-01T10:43:21;101541.72;;;7.67;47.88
74403;BME280;62837;51.082;13.744;2023-03-01T10:45:52;101539.79;;;7.70;48.13
74403;BME280;62837;51.082;13.744;2023-03-01T10:48:26;101538.56;;;7.71;47.63
74403;BME280;62837;51.082;13.744;2023-03-01T10:51:11;101534.64;;;7.70;48.03
74403;BME280;62837;51.082;13.744;2023-03-01T10:53:50;101524.23;;;7.73;47.53
74403;BME280;62837;51.082;13.744;2023-03-01T10:56:21;101519.64;;;7.69;46.21
74403;BME280;62837;51.082;13.744;2023-03-01T10:59:00;101513.72;;;7.52;44.47
74403;BME280;62837;51.082;13.744;2023-03-01T11:01:33;101511.16;;;7.21;44.96
74403;BME280;62837;51.082;13.744;2023-03-01T11:04:13;101510.70;;;7.10;45.23
74403;BME280;62837;51.082;13.744;2023-03-01T11:06:44;101513.20;;;7.02;45.42
74403;BME280;62837;51.082;13.744;2023-03-01T11:09:32;101506.84;;;6.94;45.68
74403;BME280;62837;51.082;13.744;2023-03-01T11:12:14;101501.33;;;6.95;45.65
74403;BME280;62837;51.082;13.744;2023-03-01T11:14:50;101502.59;;;6.95;49.12
74403;BME280;62837;51.082;13.744;2023-03-01T11:17:24;101503.63;;;7.06;49.16
74403;BME280;62837;51.082;13.744;2023-03-01T11:20:13;101497.22;;;7.09;47.44
74403;BME280;62837;51.082;13.744;2023-03-01T11:22:50;101495.80;;;7.10;46.32
74403;BME280;62837;51.082;13.744;2023-03-01T11:25:25;101494.99;;;7.05;46.14
74403;BME280;62837;51.082;13.744;2023-03-01T11:28:00;101500.83;;;7.01;45.11
74403;BME280;62837;51.082;13.744;2023-03-01T11:30:34;101500.79;;;6.92;44.42
74403;BME280;62837;51.082;13.744;2023-03-01T11:33:16;101498.11;;;6.84;45.34
74403;BME280;62837;51.082;13.744;2023-03-01T11:35:55;101495.64;;;6.87;45.87
74403;BME280;62837;51.082;13.744;2023-03-01T11:38:29;101492.95;;;6.89;45.14
74403;BME280;62837;51.082;13.744;2023-03-01T11:41:06;101498.63;;;6.83;43.12
74403;BME280;62837;51.082;13.744;2023-03-01T11:43:46;101495.00;;;6.63;41.40
74403;BME280;62837;51.082;13.744;2023-03-01T11:46:42;101494.44;;;6.42;41.21
74403;BME280;62837;51.082;13.744;2023-03-01T11:52:31;101494.00;;;6.27;40.72
74403;BME280;62837;51.082;13.744;2023-03-01T11:55:23;101488.16;;;6.25;41.73
74403;BME280;62837;51.082;13.744;2023-03-01T11:58:25;101487.11;;;6.28;42.49
74403;BME280;62837;51.082;13.744;2023-03-01T12:01:16;101487.83;;;6.29;42.55
74403;BME280;62837;51.082;13.744;2023-03-01T12:04:02;101478.50;;;6.27;42.36
74403;BME280;62837;51.082;13.744;2023-03-01T12:06:57;101481.23;;;6.19;41.32
74403;BME280;62837;51.082;13.744;2023-03-01T12:09:41;101477.84;;;6.13;41.04
74403;BME280;62837;51.082;13.744;2023-03-01T12:12:33;101472.84;;;6.11;41.64
74403;BME280;62837;51.082;13.744;2023-03-01T12:15:28;101475.12;;;6.13;41.66
74403;BME280;62837;51.082;13.744;2023-03-01T12:18:35;101469.02;;;6.14;42.32
74403;BME280;62837;51.082;13.744;2023-03-01T12:21:20;101468.88;;;6.16;43.29
74403;BME280;62837;51.082;13.744;2023-03-01T12:24:16;101465.46;;;6.14;43.79
74403;BME280;62837;51.082;13.744;2023-03-01T12:27:07;101460.42;;;6.07;44.94
74403;BME280;62837;51.082;13.744;2023-03-01T12:29:48;101456.16;;;6.08;45.71
74403;BME280;62837;51.082;13.744;2023-03-01T12:32:34;101450.16;;;6.12;45.84
74403;BME280;62837;51.082;13.744;2023-03-01T12:35:24;101451.83;;;6.09;45.90
74403;BME280;62837;51.082;13.744;2023-03-01T12:38:10;101448.44;;;6.01;46.46
74403;BME280;62837;51.082;13.744;2023-03-01T12:40:56;101444.91;;;6.02;47.06
74403;BME280;62837;51.082;13.744;2023-03-01T12:43:46;101440.41;;;6.00;46.87
74403;BME280;62837;51.082;13.744;2023-03-01T12:46:28;101437.98;;;6.01;46.76
74403;BME280;62837;51.082;13.744;2023-03-01T12:49:08;101439.34;;;5.97;45.63
74403;BME280;62837;51.082;13.744;2023-03-01T12:51:42;101432.42;;;5.90;44.68
74403;BME280;62837;51.082;13.744;2023-03-01T12:54:18;101439.77;;;5.90;45.20
74403;BME280;62837;51.082;13.744;2023-03-01T12:56:51;101439.58;;;5.87;44.63
74403;BME280;62837;51.082;13.744;2023-03-01T12:59:27;101435.70;;;5.80;44.42
74403;BME280;62837;51.082;13.744;2023-03-01T13:02:13;101426.05;;;5.77;44.57
74403;BME280;62837;51.082;13.744;2023-03-01T13:05:00;101422.00;;;5.79;44.51
74403;BME280;62837;51.082;13.744;2023-03-01T13:07:37;101426.80;;;5.79;44.87
74403;BME280;62837;51.082;13.744;2023-03-01T13:10:14;101422.14;;;5.78;44.88
74403;BME280;62837;51.082;13.744;2023-03-01T13:13:02;101417.05;;;5.76;44.72
74403;BME280;62837;51.082;13.744;2023-03-01T13:15:35;101424.63;;;5.74;44.70
74403;BME280;62837;51.082;13.744;2023-03-01T13:18:29;101422.20;;;5.73;44.88
74403;BME280;62837;51.082;13.744;2023-03-01T13:21:04;101417.55;;;5.77;45.05
74403;BME280;62837;51.082;13.744;2023-03-01T13:23:37;101413.96;;;5.82;45.29
74403;BME280;62837;51.082;13.744;2023-03-01T13:26:14;101416.70;;;5.85;44.58